map of EBM home
EBM - Airport
Location
City:  El Borma, Tunisia
ICAO:DTTR
IATA:EBM

Details
Type:Airport (Aerodrome, Airfield)
Use:Public/Civil
Latitude:3142'10"N (31.702778)
Longitude:915'27"E (9.257500)
Elevation:847 ft (258 m)
Variation:2.15E (WMM2015v2 magnetic declination)
0.11 annual change
Runways:1
Longest:8858 × 148 ft (2700 × 45 m), paved

Time
Time Zone:UTC+1 (DST+2)

Weather
METAR:DTTR 041400Z 29016KT 9999 FEW023 13/M03 Q1017

Related Locations
Nearby:
Farthest:EUA: 11675 mi / 18789 km
Eua [Kaufana], TO

Find:

   beyond  
but within

Other Information
Maps:
NOTAMs:
Links:
Sources:

  
  • flag of Tunisia
  

Sectional Chart

Flight Planning
at skyvector.com

Satellite Image

Google Maps Satellite view

 

Copyright © 2004-2019 Karl L. Swartz. All rights reserved.
The Great Circle Mapper name and logo are trademarks of the Great Circle Mapper.
All other trademarks mentioned herein belong to their respective owners.
Please see credits for attibutions and further copyright information.

  Follow gcmap on Facebook Follow gcmap on Twitter GCmap on LinkedIn

hCard Microformat

Geo Microformat